Time;durP1;ratioP1;P1;durP2;ratioP2;P2;SDS_P1;SDS_P2;PMS_P1;PMS_P2;Temp;Humidity;BMP_temperature;BMP_pressure;BME280_temperature;BME280_humidity;BME280_pressure;Samples;Min_cycle;Max_cycle;Signal;HPM_P1;HPM_P2
2022/09/26 00:01:52;;;;;;;13.25;11.30;;;12.00;99.90;;;;;;6233181;23;20947;-77
2022/09/26 00:04:22;;;;;;;12.32;11.10;;;11.90;99.90;;;;;;6237968;22;20288;-77
2022/09/26 00:06:51;;;;;;;13.93;12.52;;;11.90;99.90;;;;;;6233841;22;20244;-77
2022/09/26 00:09:18;;;;;;;13.35;12.05;;;11.90;99.90;;;;;;6236303;22;20216;-78
2022/09/26 00:11:46;;;;;;;14.77;11.10;;;11.80;99.90;;;;;;6225808;22;20185;-78
2022/09/26 00:14:15;;;;;;;12.13;10.95;;;11.80;99.90;;;;;;6236264;22;20195;-78
2022/09/26 00:16:42;;;;;;;12.77;11.50;;;11.80;99.90;;;;;;6235210;22;20216;-78
2022/09/26 00:19:09;;;;;;;12.27;11.07;;;11.80;99.90;;;;;;6236920;22;20336;-77
2022/09/26 00:21:36;;;;;;;11.18;10.20;;;11.80;99.90;;;;;;6234857;22;20234;-78
2022/09/26 00:24:05;;;;;;;11.23;10.10;;;11.80;99.90;;;;;;6235690;22;20192;-77
2022/09/26 00:26:34;;;;;;;12.20;10.93;;;11.80;99.90;;;;;;6236398;22;20303;-78
2022/09/26 00:29:06;;;;;;;11.10;9.65;;;11.80;99.90;;;;;;6236043;22;20189;-77
2022/09/26 00:31:35;;;;;;;13.45;11.32;;;11.80;99.90;;;;;;6246290;22;20190;-78
2022/09/26 00:34:03;;;;;;;11.27;9.98;;;11.80;99.90;;;;;;6231889;23;20189;-78
2022/09/26 00:36:31;;;;;;;11.05;10.05;;;11.80;99.90;;;;;;6237877;22;20643;-78
2022/09/26 00:38:58;;;;;;;13.32;10.10;;;11.80;99.90;;;;;;6236727;22;20188;-77
2022/09/26 00:41:26;;;;;;;11.30;10.23;;;11.70;99.90;;;;;;6237403;22;20213;-78
2022/09/26 00:43:55;;;;;;;11.68;10.48;;;11.70;99.90;;;;;;6230686;22;20203;-77
2022/09/26 00:46:30;;;;;;;10.80;9.80;;;11.60;99.90;;;;;;6229829;22;20216;-78
2022/09/26 00:49:06;;;;;;;15.20;12.35;;;11.50;99.90;;;;;;6233893;22;20549;-78
2022/09/26 00:51:35;;;;;;;12.30;11.00;;;11.50;99.90;;;;;;6234739;22;20666;-77
2022/09/26 00:54:04;;;;;;;11.15;10.13;;;11.50;99.90;;;;;;6236461;23;20189;-77
2022/09/26 00:56:35;;;;;;;11.98;10.48;;;11.40;99.90;;;;;;6236201;22;20189;-78
2022/09/26 00:59:06;;;;;;;11.60;10.43;;;11.40;99.90;;;;;;6236797;22;20220;-77
2022/09/26 01:01:34;;;;;;;13.60;12.15;;;11.40;99.90;;;;;;6233784;22;20211;-78
2022/09/26 01:04:03;;;;;;;12.20;11.05;;;11.40;99.90;;;;;;6236525;22;20272;-78
2022/09/26 01:06:32;;;;;;;12.27;11.10;;;11.40;99.90;;;;;;6234058;22;20252;-78
2022/09/26 01:09:02;;;;;;;12.18;10.88;;;11.30;99.90;;;;;;6234609;22;20584;-78
2022/09/26 01:11:30;;;;;;;15.38;13.88;;;11.30;99.90;;;;;;6237422;22;20199;-78
2022/09/26 01:13:59;;;;;;;15.07;13.77;;;11.20;99.90;;;;;;6236117;22;20220;-78
2022/09/26 01:16:26;;;;;;;12.43;11.32;;;11.20;99.90;;;;;;6221517;22;20203;-78
2022/09/26 01:18:54;;;;;;;13.45;12.15;;;11.10;99.90;;;;;;6231239;22;20197;-78
2022/09/26 01:21:49;;;;;;;13.65;12.27;;;11.10;99.90;;;;;;6236876;22;20212;-78
2022/09/26 01:24:47;;;;;;;15.57;13.40;;;11.00;99.90;;;;;;6233837;23;20195;-78
2022/09/26 01:27:44;;;;;;;14.63;13.10;;;11.00;99.90;;;;;;6238778;23;20223;-77
2022/09/26 01:30:15;;;;;;;13.40;12.10;;;11.00;99.90;;;;;;6207969;22;20208;-78
2022/09/26 01:33:10;;;;;;;12.57;11.27;;;11.00;99.90;;;;;;6232675;22;20199;-78
2022/09/26 01:35:54;;;;;;;14.57;12.90;;;10.90;99.90;;;;;;6231554;22;20191;-78
2022/09/26 01:38:29;;;;;;;13.63;12.27;;;10.90;99.90;;;;;;6225649;22;20195;-78
2022/09/26 01:41:11;;;;;;;14.38;12.88;;;10.80;99.90;;;;;;6237783;22;20564;-78
2022/09/26 01:43:47;;;;;;;13.57;12.27;;;10.80;99.90;;;;;;6236458;22;20224;-78
2022/09/26 01:46:24;;;;;;;15.18;12.60;;;10.80;99.90;;;;;;6230811;22;20251;-78
2022/09/26 01:48:55;;;;;;;14.38;13.02;;;10.80;99.90;;;;;;6233022;22;20284;-78
2022/09/26 01:51:27;;;;;;;14.65;13.10;;;10.80;99.90;;;;;;6236369;22;20235;-78
2022/09/26 01:53:59;;;;;;;15.07;13.48;;;10.80;99.90;;;;;;6234842;22;20646;-78
2022/09/26 01:56:30;;;;;;;12.88;11.60;;;10.80;99.90;;;;;;6237023;22;20188;-78
2022/09/26 01:59:03;;;;;;;14.23;12.88;;;10.80;99.90;;;;;;6233692;22;20726;-78
2022/09/26 02:01:36;;;;;;;17.75;14.05;;;10.80;99.90;;;;;;6234283;22;20192;-78
2022/09/26 02:04:09;;;;;;;14.68;13.02;;;10.80;99.90;;;;;;6235320;22;20293;-78
2022/09/26 02:06:40;;;;;;;14.38;12.95;;;10.80;99.90;;;;;;6233272;22;20220;-77
2022/09/26 02:09:11;;;;;;;14.70;13.27;;;10.80;99.90;;;;;;6235320;22;20571;-78
2022/09/26 02:11:41;;;;;;;14.50;13.07;;;10.80;99.90;;;;;;6233574;22;20208;-78
2022/09/26 02:14:14;;;;;;;15.35;13.95;;;10.80;99.90;;;;;;6236176;22;20584;-78
2022/09/26 02:16:47;;;;;;;14.60;13.10;;;10.80;99.90;;;;;;6236461;22;20267;-78
2022/09/26 02:19:18;;;;;;;14.90;13.30;;;10.90;99.90;;;;;;6236338;22;20223;-78
2022/09/26 02:21:46;;;;;;;15.43;13.90;;;10.90;99.90;;;;;;6235428;22;20197;-78
2022/09/26 02:24:13;;;;;;;19.50;15.77;;;10.90;99.90;;;;;;6235168;22;20196;-78
2022/09/26 02:26:41;;;;;;;14.80;13.45;;;10.90;99.90;;;;;;6232810;22;20258;-77
2022/09/26 02:29:08;;;;;;;15.93;14.43;;;10.90;99.90;;;;;;6235268;22;20302;-78
2022/09/26 02:31:40;;;;;;;16.63;14.75;;;10.90;99.90;;;;;;6247949;22;20188;-77
2022/09/26 02:34:09;;;;;;;13.88;12.68;;;10.90;99.90;;;;;;6234152;22;20218;-78
2022/09/26 02:36:37;;;;;;;14.82;13.32;;;10.80;99.90;;;;;;6238526;22;20211;-77
2022/09/26 02:39:04;;;;;;;14.27;12.98;;;10.80;99.90;;;;;;6246079;22;20933;-78
2022/09/26 02:41:40;;;;;;;16.27;14.77;;;10.80;99.90;;;;;;6235799;22;20215;-78
2022/09/26 02:44:23;;;;;;;17.13;15.48;;;10.70;99.90;;;;;;6236090;22;20196;-77
2022/09/26 02:47:40;;;;;;;15.10;13.68;;;10.70;99.90;;;;;;6223084;22;20228;-78
2022/09/26 02:50:36;;;;;;;14.90;13.45;;;10.70;99.90;;;;;;6203872;22;20758;-77
2022/09/26 02:53:16;;;;;;;13.63;12.32;;;10.60;99.90;;;;;;6225191;23;20592;-78
2022/09/26 02:55:51;;;;;;;15.05;12.80;;;10.60;99.90;;;;;;6237248;23;20267;-77
2022/09/26 02:58:27;;;;;;;15.80;13.68;;;10.50;99.90;;;;;;6231616;22;20201;-77
2022/09/26 03:01:02;;;;;;;13.00;11.77;;;10.40;99.90;;;;;;6236270;22;20233;-77
2022/09/26 03:03:35;;;;;;;15.18;13.45;;;10.40;99.90;;;;;;6226053;22;20300;-77
2022/09/26 03:06:06;;;;;;;14.75;13.25;;;10.40;99.90;;;;;;6237109;23;20184;-78
2022/09/26 03:08:38;;;;;;;13.80;12.50;;;10.30;99.90;;;;;;6232684;23;20705;-78
2022/09/26 03:11:09;;;;;;;13.05;11.75;;;10.40;99.90;;;;;;6234875;22;20207;-78
2022/09/26 03:13:39;;;;;;;15.75;13.77;;;10.40;99.90;;;;;;6231474;22;20191;-78
2022/09/26 03:16:08;;;;;;;12.75;11.65;;;10.40;99.90;;;;;;6234349;22;20240;-77
2022/09/26 03:18:41;;;;;;;13.40;12.10;;;10.40;99.90;;;;;;6217782;22;20208;-77
2022/09/26 03:21:10;;;;;;;13.75;12.38;;;10.40;99.90;;;;;;6232104;23;20189;-77
2022/09/26 03:23:37;;;;;;;14.43;13.10;;;10.40;99.90;;;;;;6234976;22;20219;-77
2022/09/26 03:26:09;;;;;;;13.10;12.00;;;10.40;99.90;;;;;;6232677;22;20193;-77
2022/09/26 03:28:36;;;;;;;13.10;11.88;;;10.30;99.90;;;;;;6230774;22;20209;-78
2022/09/26 03:31:04;;;;;;;13.50;12.10;;;10.30;99.90;;;;;;6233497;22;20670;-78
2022/09/26 03:33:31;;;;;;;13.45;12.15;;;10.30;99.90;;;;;;6234722;22;20613;-77
2022/09/26 03:35:58;;;;;;;14.00;12.70;;;10.30;99.90;;;;;;6235220;22;20230;-78
2022/09/26 03:38:27;;;;;;;14.50;12.50;;;10.30;99.90;;;;;;6228881;22;20721;-77
2022/09/26 03:40:57;;;;;;;13.50;12.30;;;10.30;99.90;;;;;;6242523;22;20645;-78
2022/09/26 03:43:24;;;;;;;13.68;12.48;;;10.30;99.90;;;;;;6234409;22;20266;-77
2022/09/26 03:45:51;;;;;;;14.55;13.25;;;10.30;99.90;;;;;;6233408;22;20185;-78
2022/09/26 03:48:18;;;;;;;13.52;12.13;;;10.30;99.90;;;;;;6232801;22;20627;-78
2022/09/26 03:50:45;;;;;;;13.55;12.15;;;10.30;99.90;;;;;;6232137;22;21375;-78
2022/09/26 03:53:12;;;;;;;13.55;12.25;;;10.30;99.90;;;;;;6223778;22;20628;-77
2022/09/26 03:55:41;;;;;;;14.27;11.82;;;10.40;99.90;;;;;;6240621;22;20223;-77
2022/09/26 03:58:08;;;;;;;11.30;10.30;;;10.40;99.90;;;;;;6231712;22;20198;-77
2022/09/26 04:00:34;;;;;;;11.10;10.20;;;10.40;99.90;;;;;;6229374;22;20632;-78
2022/09/26 04:03:03;;;;;;;8.73;7.90;;;10.40;99.90;;;;;;6227697;22;20298;-78
2022/09/26 04:05:30;;;;;;;8.63;7.90;;;10.50;99.90;;;;;;6233980;22;20196;-78
2022/09/26 04:07:58;;;;;;;8.30;7.60;;;10.50;99.90;;;;;;6235058;22;20223;-78
2022/09/26 04:10:26;;;;;;;8.00;7.20;;;10.50;99.90;;;;;;6234605;22;20215;-78
2022/09/26 04:12:55;;;;;;;8.45;7.55;;;10.50;99.90;;;;;;6233720;22;20193;-77
2022/09/26 04:15:22;;;;;;;6.32;5.82;;;10.60;99.90;;;;;;6230838;22;20185;-76
2022/09/26 04:17:49;;;;;;;8.15;6.45;;;10.60;99.90;;;;;;6234346;22;20200;-74
2022/09/26 04:20:16;;;;;;;8.32;7.53;;;10.50;99.90;;;;;;6228871;22;20337;-77
2022/09/26 04:22:44;;;;;;;10.05;8.18;;;10.50;99.90;;;;;;6236583;22;20219;-76
2022/09/26 04:25:12;;;;;;;9.65;8.75;;;10.50;99.90;;;;;;6232858;22;20214;-76
2022/09/26 04:27:39;;;;;;;10.55;9.55;;;10.40;99.90;;;;;;6234351;22;20306;-76
2022/09/26 04:30:10;;;;;;;10.02;9.13;;;10.30;99.90;;;;;;6226346;22;20431;-76
2022/09/26 04:32:37;;;;;;;10.70;9.80;;;10.20;99.90;;;;;;6239033;22;20201;-75
2022/09/26 04:35:05;;;;;;;12.05;10.95;;;10.10;99.90;;;;;;6232272;22;20259;-76
2022/09/26 04:37:35;;;;;;;12.40;11.20;;;10.10;99.90;;;;;;6228486;22;20196;-76
2022/09/26 04:40:03;;;;;;;11.77;10.57;;;10.00;99.90;;;;;;6240472;22;20208;-75
2022/09/26 04:42:33;;;;;;;12.15;11.05;;;9.90;99.90;;;;;;6224948;22;20217;-75
2022/09/26 04:45:00;;;;;;;12.13;11.02;;;9.90;99.90;;;;;;6227789;22;20204;-76
2022/09/26 04:47:28;;;;;;;13.48;12.27;;;9.80;99.90;;;;;;6230550;22;20274;-76
2022/09/26 04:49:55;;;;;;;12.18;11.02;;;9.80;99.90;;;;;;6239282;23;20208;-74
2022/09/26 04:52:23;;;;;;;11.88;10.77;;;9.50;99.90;;;;;;6216933;22;20215;-76
2022/09/26 04:54:50;;;;;;;11.32;10.15;;;9.80;99.90;;;;;;6219446;22;20183;-76
2022/09/26 04:57:18;;;;;;;12.70;11.50;;;9.80;99.90;;;;;;6229349;22;20194;-76
2022/09/26 04:59:45;;;;;;;12.10;10.90;;;9.80;99.90;;;;;;6234755;22;20278;-76
2022/09/26 05:02:11;;;;;;;12.07;10.95;;;9.90;99.90;;;;;;6226508;22;20696;-76
2022/09/26 05:04:41;;;;;;;12.57;11.48;;;9.90;99.90;;;;;;6233750;22;20184;-76
2022/09/26 05:07:07;;;;;;;12.00;11.00;;;9.90;99.90;;;;;;6233149;22;20249;-76
2022/09/26 05:09:34;;;;;;;14.80;11.52;;;9.90;99.90;;;;;;6233024;22;20708;-76
2022/09/26 05:12:02;;;;;;;11.55;10.45;;;9.80;99.90;;;;;;6232818;22;20233;-75
2022/09/26 05:14:29;;;;;;;12.20;11.00;;;9.80;99.90;;;;;;6225214;22;20192;-77
2022/09/26 05:16:56;;;;;;;11.75;10.75;;;9.70;99.90;;;;;;6233227;22;20198;-77
2022/09/26 05:19:23;;;;;;;11.60;10.43;;;9.70;99.90;;;;;;6237528;22;20201;-77
2022/09/26 05:21:51;;;;;;;12.40;9.77;;;9.80;99.90;;;;;;6245634;22;20252;-77
2022/09/26 05:27:05;;;;;;;10.50;9.40;;;9.80;99.90;;;;;;6227917;22;20217;-77
2022/09/26 05:29:32;;;;;;;10.38;9.35;;;9.80;99.90;;;;;;6228743;22;20207;-76
2022/09/26 05:32:00;;;;;;;13.48;10.65;;;9.80;99.90;;;;;;6221121;22;20546;-76
2022/09/26 05:34:27;;;;;;;11.50;10.50;;;9.80;99.90;;;;;;6214120;22;20268;-75
2022/09/26 05:36:55;;;;;;;12.20;11.10;;;9.80;99.90;;;;;;6216689;22;20199;-76
2022/09/26 05:42:08;;;;;;;12.20;10.90;;;9.70;99.90;;;;;;6230736;23;20216;-76
2022/09/26 05:44:35;;;;;;;12.35;11.15;;;9.80;99.90;;;;;;6208924;22;20187;-77
2022/09/26 05:47:02;;;;;;;13.40;11.95;;;9.60;99.90;;;;;;6211802;22;20558;-76
2022/09/26 05:49:31;;;;;;;12.63;11.43;;;9.60;99.90;;;;;;6226883;22;20232;-76
2022/09/26 05:51:59;;;;;;;14.50;13.07;;;9.60;99.90;;;;;;6220662;22;20226;-76
2022/09/26 05:54:26;;;;;;;13.40;12.10;;;9.60;99.90;;;;;;6224824;22;20187;-78
2022/09/26 05:56:53;;;;;;;13.20;11.80;;;9.20;99.90;;;;;;6218020;22;20204;-81
2022/09/26 05:59:21;;;;;;;13.05;11.75;;;9.50;99.90;;;;;;6225172;22;20620;-79
2022/09/26 06:01:48;;;;;;;13.13;11.82;;;9.50;99.90;;;;;;6226628;22;20251;-79
2022/09/26 06:04:15;;;;;;;14.32;12.90;;;9.60;99.90;;;;;;6229101;23;20188;-79
2022/09/26 06:06:43;;;;;;;11.48;10.27;;;9.60;99.90;;;;;;6215146;22;20261;-79
2022/09/26 06:09:11;;;;;;;10.40;9.40;;;9.70;99.90;;;;;;6218952;22;20777;-80
2022/09/26 06:11:38;;;;;;;12.80;11.52;;;9.80;99.90;;;;;;6228446;22;20574;-79
2022/09/26 06:14:07;;;;;;;10.88;9.88;;;9.90;99.90;;;;;;6231703;22;20187;-79
2022/09/26 06:16:34;;;;;;;11.15;10.02;;;10.00;99.90;;;;;;6235390;23;20195;-79
2022/09/26 06:19:01;;;;;;;11.25;9.20;;;10.20;99.90;;;;;;6228371;23;20208;-79
2022/09/26 06:21:28;;;;;;;10.18;9.20;;;10.30;99.90;;;;;;6219371;23;20181;-79
2022/09/26 06:23:55;;;;;;;10.52;9.57;;;10.30;99.90;;;;;;6227288;22;20184;-79
2022/09/26 06:26:26;;;;;;;11.90;9.75;;;10.40;99.90;;;;;;6224018;22;20212;-79
2022/09/26 06:28:56;;;;;;;11.15;10.15;;;10.30;99.90;;;;;;6231869;22;20220;-80
2022/09/26 06:31:24;;;;;;;9.63;8.82;;;10.30;99.90;;;;;;6225759;22;20180;-80
2022/09/26 06:33:53;;;;;;;12.05;10.93;;;10.30;99.90;;;;;;6226133;22;20621;-80
2022/09/26 06:36:21;;;;;;;10.00;9.10;;;10.30;99.90;;;;;;6226483;22;20188;-79
2022/09/26 06:38:48;;;;;;;10.93;9.93;;;10.40;99.90;;;;;;6227730;22;20218;-78
2022/09/26 06:41:15;;;;;;;10.68;9.48;;;10.40;99.90;;;;;;6224426;22;20732;-78
2022/09/26 06:43:44;;;;;;;11.05;9.95;;;10.50;99.90;;;;;;6236073;22;20185;-78
2022/09/26 06:46:11;;;;;;;10.95;9.80;;;10.50;99.90;;;;;;6226226;23;20178;-78
2022/09/26 06:48:38;;;;;;;10.18;8.82;;;10.50;99.90;;;;;;6232747;22;20287;-78
2022/09/26 06:51:06;;;;;;;13.55;9.35;;;10.60;99.90;;;;;;6236350;22;20643;-78
2022/09/26 06:53:34;;;;;;;10.07;8.57;;;10.70;99.90;;;;;;6227473;22;20185;-78
2022/09/26 06:56:01;;;;;;;9.52;8.63;;;10.70;99.90;;;;;;6225770;22;20200;-78
2022/09/26 06:58:28;;;;;;;11.00;8.90;;;10.80;99.90;;;;;;6225308;22;20261;-78
2022/09/26 07:00:59;;;;;;;11.32;8.63;;;10.80;99.90;;;;;;6219547;22;20651;-78
2022/09/26 07:03:26;;;;;;;9.45;8.48;;;10.80;99.90;;;;;;6224152;22;20185;-78
2022/09/26 07:05:54;;;;;;;8.98;8.25;;;10.90;99.90;;;;;;6234122;22;20185;-78
2022/09/26 07:08:21;;;;;;;9.05;8.25;;;11.00;99.90;;;;;;6219122;22;20216;-79
2022/09/26 07:10:48;;;;;;;8.07;7.28;;;11.10;99.90;;;;;;6223710;22;21019;-72
2022/09/26 07:13:15;;;;;;;7.35;6.75;;;11.20;99.90;;;;;;6213899;22;20189;-72
2022/09/26 07:15:45;;;;;;;7.57;6.35;;;11.30;99.90;;;;;;6228870;23;20185;-72
2022/09/26 07:18:13;;;;;;;8.00;7.20;;;11.40;99.90;;;;;;6228934;23;20205;-80
2022/09/26 07:20:41;;;;;;;6.90;5.78;;;11.50;99.90;;;;;;6224741;22;20675;-79
2022/09/26 07:23:10;;;;;;;6.72;6.13;;;11.60;99.90;;;;;;6216466;22;20355;-79
2022/09/26 07:25:38;;;;;;;6.35;5.75;;;11.60;99.90;;;;;;6232032;22;20208;-79
2022/09/26 07:28:06;;;;;;;8.35;5.43;;;11.70;99.90;;;;;;6233840;22;20298;-76
2022/09/26 07:30:33;;;;;;;5.30;4.80;;;11.80;99.90;;;;;;6224008;22;20185;-77
2022/09/26 07:33:02;;;;;;;5.30;4.20;;;11.90;99.90;;;;;;6218603;22;20192;-77
2022/09/26 07:35:31;;;;;;;4.38;3.63;;;12.10;99.90;;;;;;6226226;22;20197;-78
2022/09/26 07:37:59;;;;;;;4.37;3.87;;;12.50;99.90;;;;;;6217953;22;20209;-78
2022/09/26 07:40:26;;;;;;;3.80;3.50;;;13.10;99.90;;;;;;6230590;23;20547;-78
2022/09/26 07:42:53;;;;;;;4.40;3.73;;;13.50;99.90;;;;;;6232750;22;20438;-78
2022/09/26 07:50:09;;;;;;;5.40;3.70;;;13.70;99.90;;;;;;6230553;22;20451;-78
2022/09/26 07:50:57;;;;;;;4.50;3.83;;;14.00;99.90;;;;;;6233924;22;20524;-78
2022/09/26 07:53:24;;;;;;;4.90;3.70;;;14.00;99.90;;;;;;6227989;22;20490;-77
2022/09/26 07:56:09;;;;;;;5.77;4.07;;;13.90;99.90;;;;;;6236200;22;20996;-78
2022/09/26 07:58:38;;;;;;;5.40;4.00;;;13.80;99.90;;;;;;6233760;23;20494;-78
2022/09/26 08:01:06;;;;;;;4.67;4.27;;;13.80;99.90;;;;;;6229852;22;20437;-78
2022/09/26 08:03:33;;;;;;;4.40;4.00;;;13.70;99.90;;;;;;6247898;22;20441;-79
2022/09/26 08:06:02;;;;;;;5.13;4.73;;;13.60;99.90;;;;;;6220861;22;20529;-78
2022/09/26 08:08:30;;;;;;;6.90;4.57;;;13.50;99.90;;;;;;6224166;22;20462;-78
2022/09/26 08:10:57;;;;;;;5.53;3.87;;;13.40;99.90;;;;;;6230804;23;20512;-78
2022/09/26 08:13:25;;;;;;;4.80;3.37;;;13.50;99.90;;;;;;6226419;22;20436;-78
2022/09/26 08:15:53;;;;;;;3.57;3.27;;;13.50;99.90;;;;;;6227824;22;20432;-78
2022/09/26 08:18:20;;;;;;;4.03;3.20;;;13.60;99.90;;;;;;6238540;22;20467;-78
2022/09/26 08:20:47;;;;;;;4.40;3.33;;;13.70;99.90;;;;;;6232542;22;21061;-78
2022/09/26 08:23:17;;;;;;;3.30;3.00;;;13.70;99.90;;;;;;6226736;22;20929;-78
2022/09/26 08:25:44;;;;;;;4.00;2.97;;;13.60;99.90;;;;;;6229835;22;20671;-78
2022/09/26 08:28:12;;;;;;;6.40;3.90;;;13.80;99.90;;;;;;6230008;22;20486;-78
2022/09/26 08:30:39;;;;;;;3.23;2.93;;;13.90;99.90;;;;;;6231053;23;20943;-77
2022/09/26 08:33:07;;;;;;;4.27;3.10;;;14.00;99.90;;;;;;6234287;22;20435;-77
2022/09/26 08:35:37;;;;;;;3.20;2.90;;;14.00;99.90;;;;;;6239220;22;20504;-78
2022/09/26 08:38:05;;;;;;;3.40;2.60;;;14.60;99.90;;;;;;6225654;22;20543;-78
2022/09/26 08:40:44;;;;;;;4.87;3.03;;;14.60;99.90;;;;;;6234703;22;20461;-78
2022/09/26 08:43:32;;;;;;;3.33;2.70;;;14.80;99.90;;;;;;6228736;22;20518;-78
2022/09/26 08:46:35;;;;;;;4.43;2.60;;;15.00;99.90;;;;;;6222923;22;20955;-78
2022/09/26 08:49:24;;;;;;;3.70;2.53;;;15.20;99.90;;;;;;6225404;22;20485;-78
2022/09/26 08:51:53;;;;;;;2.70;2.50;;;15.50;99.90;;;;;;6223476;23;20430;-76
2022/09/26 08:54:31;;;;;;;3.60;2.03;;;15.90;99.90;;;;;;6228650;22;20522;-77
2022/09/26 08:57:05;;;;;;;2.60;2.40;;;16.10;99.90;;;;;;6228823;22;20468;-77
2022/09/26 08:59:37;;;;;;;4.10;2.50;;;16.30;99.90;;;;;;6231997;22;20430;-78
2022/09/26 09:02:21;;;;;;;3.03;2.60;;;16.50;99.90;;;;;;6237472;22;20481;-77
2022/09/26 09:04:54;;;;;;;3.50;2.40;;;16.50;99.90;;;;;;6236948;23;20440;-78
2022/09/26 09:07:23;;;;;;;3.00;2.30;;;16.50;99.90;;;;;;6224081;22;20479;-77
2022/09/26 09:09:55;;;;;;;3.33;2.47;;;16.60;99.90;;;;;;6224958;22;20462;-77
2022/09/26 09:12:33;;;;;;;4.00;2.50;;;16.60;99.90;;;;;;6231045;23;20925;-77
2022/09/26 09:15:23;;;;;;;2.73;2.13;;;16.90;99.90;;;;;;6236140;23;20503;-77
2022/09/26 09:17:58;;;;;;;3.47;2.17;;;17.30;99.90;;;;;;6218816;22;22371;-77
2022/09/26 09:20:39;;;;;;;3.47;2.20;;;17.60;99.90;;;;;;6234385;22;20462;-77
2022/09/26 09:23:30;;;;;;;3.93;2.13;;;17.80;99.90;;;;;;6228071;22;20431;-76
2022/09/26 09:26:10;;;;;;;2.80;2.10;;;18.10;99.90;;;;;;6219261;23;20457;-77
2022/09/26 09:28:56;;;;;;;2.63;1.90;;;18.40;99.90;;;;;;6232529;22;20458;-78
2022/09/26 09:31:25;;;;;;;2.10;1.90;;;18.60;99.90;;;;;;6230409;23;20438;-76
2022/09/26 09:33:58;;;;;;;6.03;1.80;;;18.80;99.90;;;;;;6228374;22;20464;-78
2022/09/26 09:36:28;;;;;;;2.33;2.13;;;18.80;99.90;;;;;;6226561;22;20442;-77
2022/09/26 09:39:02;;;;;;;2.47;1.70;;;18.90;99.90;;;;;;6230977;23;20947;-77
2022/09/26 09:41:35;;;;;;;3.10;2.40;;;19.00;99.90;;;;;;6228506;22;20434;-78
2022/09/26 09:44:10;;;;;;;3.30;1.90;;;19.10;99.90;;;;;;6230584;22;20431;-80
2022/09/26 09:46:41;;;;;;;1.83;1.43;;;19.20;99.90;;;;;;6233158;22;20481;-77
2022/09/26 09:49:19;;;;;;;2.07;1.87;;;18.90;99.90;;;;;;6235029;23;20553;-78
2022/09/26 09:51:56;;;;;;;2.90;2.20;;;19.20;99.90;;;;;;6228235;23;20477;-78
2022/09/26 09:54:42;;;;;;;2.23;1.97;;;19.60;99.90;;;;;;6230220;22;20503;-79
2022/09/26 09:57:27;;;;;;;3.40;2.00;;;20.00;99.90;;;;;;6232396;22;20650;-78
2022/09/26 10:00:08;;;;;;;2.50;1.70;;;20.60;99.90;;;;;;6236055;23;20453;-77
2022/09/26 10:02:42;;;;;;;1.83;1.40;;;20.60;99.90;;;;;;6233240;22;20456;-78
2022/09/26 10:05:22;;;;;;;3.13;1.93;;;20.10;99.90;;;;;;6235450;23;20936;-76
2022/09/26 10:07:50;;;;;;;2.80;1.60;;;19.50;99.90;;;;;;6235820;23;20453;-79
2022/09/26 10:10:21;;;;;;;2.77;1.70;;;19.20;99.90;;;;;;6217228;22;20514;-81
2022/09/26 10:12:50;;;;;;;3.30;1.60;;;18.90;99.90;;;;;;6232923;22;20434;-82
2022/09/26 10:15:20;;;;;;;2.90;1.70;;;18.50;99.90;;;;;;6229971;23;20470;-77
2022/09/26 10:18:04;;;;;;;2.13;1.40;;;18.20;99.90;;;;;;6228546;22;20481;-84
2022/09/26 10:20:38;;;;;;;1.53;1.40;;;17.80;99.90;;;;;;6220475;22;20457;-75
2022/09/26 10:23:20;;;;;;;2.60;1.60;;;17.60;99.90;;;;;;6223614;22;20434;-76
2022/09/26 10:25:49;;;;;;;2.13;1.87;;;17.20;99.90;;;;;;6215459;22;20526;-76
2022/09/26 10:28:26;;;;;;;2.70;1.70;;;17.00;99.90;;;;;;6231180;22;20445;-75
2022/09/26 10:30:59;;;;;;;2.33;2.13;;;17.10;99.90;;;;;;6239346;22;20461;-76
2022/09/26 10:33:32;;;;;;;1.70;1.60;;;17.70;99.90;;;;;;6226009;22;20438;-76
2022/09/26 10:36:03;;;;;;;1.87;1.20;;;18.50;99.90;;;;;;6226736;22;20445;-76
2022/09/26 10:38:31;;;;;;;2.00;1.50;;;19.00;99.90;;;;;;6239004;23;20439;-76
2022/09/26 10:41:00;;;;;;;1.63;1.40;;;19.50;99.90;;;;;;6229952;22;20437;-76
2022/09/26 10:43:29;;;;;;;1.30;1.20;;;19.60;99.70;;;;;;6237281;22;20945;-76
2022/09/26 10:46:02;;;;;;;1.97;1.40;;;19.30;99.50;;;;;;6238181;22;20452;-76
2022/09/26 10:48:42;;;;;;;4.23;1.53;;;18.80;99.30;;;;;;6227661;23;20445;-76
2022/09/26 10:51:10;;;;;;;2.07;1.30;;;18.40;99.90;;;;;;6230749;22;20438;-76
2022/09/26 10:53:40;;;;;;;1.93;1.20;;;18.00;99.90;;;;;;6235454;22;20507;-76
2022/09/26 10:56:11;;;;;;;1.10;1.00;;;18.20;99.90;;;;;;6230468;22;20537;-76
2022/09/26 10:58:45;;;;;;;2.47;1.20;;;18.70;99.90;;;;;;6216806;22;20530;-76
2022/09/26 11:01:21;;;;;;;1.40;1.10;;;19.10;98.60;;;;;;6232564;22;20430;-73
2022/09/26 11:03:49;;;;;;;1.70;1.30;;;18.90;98.10;;;;;;6225966;22;20838;-72
2022/09/26 11:06:26;;;;;;;1.40;1.20;;;18.50;98.60;;;;;;6226542;22;20552;-76
2022/09/26 11:08:56;;;;;;;2.70;1.60;;;18.10;99.10;;;;;;6221214;22;20541;-75
2022/09/26 11:11:24;;;;;;;1.70;1.20;;;18.00;99.40;;;;;;6227466;22;20595;-75
2022/09/26 11:14:02;;;;;;;2.53;1.40;;;17.90;99.90;;;;;;6228819;22;20588;-75
2022/09/26 11:16:37;;;;;;;1.43;1.33;;;18.10;99.90;;;;;;6233856;22;20454;-72
2022/09/26 11:19:12;;;;;;;1.10;1.00;;;18.00;99.90;;;;;;6236356;22;20451;-73
2022/09/26 11:21:46;;;;;;;2.07;1.40;;;17.70;99.90;;;;;;6227730;22;20436;-72
2022/09/26 11:24:19;;;;;;;1.83;1.37;;;17.50;99.90;;;;;;6229753;22;20434;-72
2022/09/26 11:26:58;;;;;;;2.03;1.50;;;17.50;99.90;;;;;;6222869;22;20510;-74
2022/09/26 11:29:40;;;;;;;2.10;1.40;;;17.40;99.90;;;;;;6228431;22;20587;-74
2022/09/26 11:32:13;;;;;;;1.47;1.00;;;17.40;99.90;;;;;;6232208;22;20474;-73
2022/09/26 11:34:40;;;;;;;2.40;1.20;;;17.70;99.90;;;;;;6211024;22;21455;-72
2022/09/26 11:37:30;;;;;;;2.50;1.10;;;18.10;99.90;;;;;;6219135;22;20479;-73
2022/09/26 11:40:34;;;;;;;3.57;1.20;;;18.40;99.60;;;;;;6233238;22;20433;-72
2022/09/26 11:43:18;;;;;;;1.70;1.10;;;19.00;99.40;;;;;;6225708;22;20439;-73
2022/09/26 11:46:02;;;;;;;1.57;1.10;;;19.60;97.90;;;;;;6217679;22;20544;-72
2022/09/26 11:48:51;;;;;;;2.10;1.20;;;19.60;98.40;;;;;;6227321;22;20452;-72
2022/09/26 11:51:32;;;;;;;1.57;1.10;;;19.80;97.50;;;;;;6228225;22;20474;-72
2022/09/26 11:54:19;;;;;;;3.97;1.50;;;19.30;97.20;;;;;;6226279;22;20525;-73
2022/09/26 11:57:07;;;;;;;2.30;1.30;;;18.70;98.40;;;;;;6221747;22;20459;-72
2022/09/26 11:59:51;;;;;;;2.13;1.40;;;18.40;99.40;;;;;;6226510;22;20470;-73
2022/09/26 12:02:43;;;;;;;1.50;1.40;;;18.00;99.40;;;;;;6222144;22;20996;-73
2022/09/26 12:05:36;;;;;;;1.50;1.27;;;17.60;99.90;;;;;;6217846;22;20472;-72
2022/09/26 12:08:20;;;;;;;3.37;1.20;;;16.80;99.90;;;;;;6209043;22;20479;-73
2022/09/26 12:10:56;;;;;;;2.03;1.10;;;16.20;99.90;;;;;;6226688;22;20507;-73
2022/09/26 12:13:34;;;;;;;2.30;0.77;;;15.60;99.90;;;;;;6214237;22;20444;-72
2022/09/26 12:16:11;;;;;;;2.20;1.20;;;15.30;99.90;;;;;;6224653;22;20891;-73
2022/09/26 12:18:48;;;;;;;1.83;1.13;;;15.20;99.90;;;;;;6221530;23;20423;-73
2022/09/26 12:21:29;;;;;;;1.30;1.20;;;15.00;99.90;;;;;;6239323;22;20441;-72
2022/09/26 12:24:02;;;;;;;1.60;1.10;;;14.80;99.90;;;;;;6227703;22;20834;-73
2022/09/26 12:26:35;;;;;;;2.50;1.30;;;15.00;99.90;;;;;;6222438;22;20491;-73
2022/09/26 12:29:31;;;;;;;5.03;2.40;;;14.80;99.90;;;;;;6225094;22;20433;-73
2022/09/26 12:32:15;;;;;;;3.23;1.40;;;15.20;99.90;;;;;;6219391;22;20497;-73
2022/09/26 12:35:21;;;;;;;1.30;1.00;;;16.00;99.90;;;;;;6225494;22;20434;-73
2022/09/26 12:38:08;;;;;;;1.20;1.10;;;16.50;99.90;;;;;;6109930;23;20921;-73
2022/09/26 12:40:42;;;;;;;1.57;1.00;;;17.10;99.90;;;;;;6217358;22;20454;-73
2022/09/26 12:43:45;;;;;;;1.43;1.20;;;17.60;99.90;;;;;;6224272;22;21035;-74
2022/09/26 12:46:41;;;;;;;1.93;1.27;;;17.90;99.90;;;;;;6224441;22;20561;-74
2022/09/26 12:49:37;;;;;;;3.70;1.20;;;17.90;99.90;;;;;;6224147;23;20459;-73
2022/09/26 12:52:18;;;;;;;2.70;1.40;;;18.10;99.90;;;;;;6204401;22;20533;-76
2022/09/26 12:55:08;;;;;;;2.40;2.13;;;18.10;99.90;;;;;;6216301;22;20456;-74
2022/09/26 12:57:49;;;;;;;1.60;1.50;;;18.20;99.90;;;;;;6227859;23;20450;-74
2022/09/26 13:00:20;;;;;;;1.33;1.00;;;18.40;99.90;;;;;;6223232;22;20980;-74
2022/09/26 13:03:31;;;;;;;2.97;1.60;;;18.40;99.90;;;;;;6221792;22;20447;-74
2022/09/26 13:06:46;;;;;;;1.60;1.50;;;18.50;99.90;;;;;;6221328;22;20449;-74
2022/09/26 13:09:32;;;;;;;1.53;1.30;;;18.80;99.90;;;;;;6095614;23;20458;-74
2022/09/26 13:12:13;;;;;;;1.53;1.13;;;18.80;99.90;;;;;;6225498;22;20472;-74
2022/09/26 13:14:56;;;;;;;1.30;1.13;;;18.50;99.90;;;;;;6225051;22;20436;-74
2022/09/26 13:17:28;;;;;;;1.47;1.17;;;18.20;99.90;;;;;;6236771;22;20446;-75